createdAt,value
2018-05-07T00:01:43.859Z,63.80
2018-05-07T00:04:13.550Z,64.30
2018-05-07T00:06:42.256Z,64.30
2018-05-07T00:09:10.736Z,64.00
2018-05-07T00:11:39.639Z,64.20
2018-05-07T00:14:08.363Z,64.70
2018-05-07T00:16:37.888Z,65.30
2018-05-07T00:19:06.466Z,65.20
2018-05-07T00:21:35.870Z,66.80
2018-05-07T00:24:05.366Z,67.00
2018-05-07T00:26:33.812Z,67.00
2018-05-07T00:29:02.770Z,67.80
2018-05-07T00:31:31.493Z,68.90
2018-05-07T00:34:00.705Z,69.40
2018-05-07T00:36:29.429Z,69.40
2018-05-07T00:38:57.912Z,69.70
2018-05-07T00:41:26.670Z,70.20
2018-05-07T00:43:55.383Z,70.70
2018-05-07T00:46:23.877Z,70.10
2018-05-07T00:48:52.504Z,70.00
2018-05-07T00:51:20.903Z,70.50
2018-05-07T00:53:50.137Z,71.10
2018-05-07T00:56:19.598Z,71.50
2018-05-07T00:58:48.034Z,71.40
2018-05-07T01:01:16.484Z,71.10
2018-05-07T01:03:44.915Z,71.60
2018-05-07T01:06:14.165Z,71.60
2018-05-07T01:08:42.861Z,71.60
2018-05-07T01:11:12.064Z,73.00
2018-05-07T01:13:40.621Z,73.00
2018-05-07T01:16:09.359Z,72.30
2018-05-07T01:18:38.559Z,72.90
2018-05-07T01:21:07.275Z,72.80
2018-05-07T01:23:36.049Z,72.90
2018-05-07T01:26:04.262Z,73.30
2018-05-07T01:28:32.945Z,73.90
2018-05-07T01:31:01.518Z,73.90
2018-05-07T01:33:29.964Z,74.30
2018-05-07T01:35:58.567Z,74.70
2018-05-07T01:38:27.261Z,75.20
2018-05-07T01:40:55.809Z,75.10
2018-05-07T01:43:25.209Z,74.90
2018-05-07T01:45:53.683Z,74.90
2018-05-07T01:48:22.998Z,75.50
2018-05-07T01:50:51.788Z,75.40
2018-05-07T01:53:20.332Z,76.00
2018-05-07T01:55:49.053Z,76.90
2018-05-07T01:58:17.769Z,77.50
2018-05-07T02:00:46.743Z,78.60
2018-05-07T02:03:15.173Z,78.90
2018-05-07T02:05:43.603Z,79.80
2018-05-07T02:08:11.896Z,80.30
2018-05-07T02:10:40.326Z,80.90
2018-05-07T02:13:09.037Z,81.70
2018-05-07T02:15:37.748Z,83.60
2018-05-07T02:18:05.847Z,84.40
2018-05-07T02:20:33.972Z,85.50
2018-05-07T02:23:02.457Z,86.50
2018-05-07T02:25:30.911Z,88.10
2018-05-07T02:27:59.712Z,88.30
2018-05-07T02:30:28.160Z,90.00
2018-05-07T02:32:57.369Z,90.00
2018-05-07T02:35:26.567Z,90.20
2018-05-07T02:37:55.788Z,90.50
2018-05-07T02:40:24.939Z,90.20
2018-05-07T02:42:53.496Z,90.50
2018-05-07T02:45:22.206Z,90.40
2018-05-07T02:47:51.301Z,91.00
2018-05-07T02:50:20.021Z,90.90
2018-05-07T02:52:48.469Z,91.10
2018-05-07T02:55:17.157Z,91.40
2018-05-07T02:57:45.605Z,91.50
2018-05-07T03:00:14.057Z,91.50
2018-05-07T03:02:42.501Z,91.70
2018-05-07T03:05:11.715Z,91.50
2018-05-07T03:07:40.153Z,91.90
2018-05-07T03:10:08.597Z,92.10
2018-05-07T03:12:37.236Z,92.50
2018-05-07T03:15:06.235Z,93.10
2018-05-07T03:17:34.972Z,93.10
2018-05-07T03:20:04.016Z,94.40
2018-05-07T03:22:33.230Z,94.80
2018-05-07T03:25:01.665Z,94.80
2018-05-07T03:27:30.112Z,95.50
2018-05-07T03:29:59.491Z,97.20
2018-05-07T03:32:27.937Z,97.20
2018-05-07T03:34:57.136Z,99.10
2018-05-07T03:37:25.668Z,99.10
2018-05-07T03:39:54.404Z,99.20
2018-05-07T03:42:23.122Z,99.70
2018-05-07T03:44:51.680Z,99.90
2018-05-07T03:47:20.892Z,99.90
2018-05-07T03:49:50.115Z,99.90
2018-05-07T03:52:19.383Z,99.90
2018-05-07T03:54:48.296Z,99.90
2018-05-07T03:57:16.982Z,99.90
2018-05-07T03:59:46.917Z,99.90
2018-05-07T04:02:15.518Z,99.90
2018-05-07T04:04:43.862Z,99.90
2018-05-07T04:07:12.296Z,99.90
2018-05-07T04:09:40.820Z,99.90
2018-05-07T04:12:09.545Z,99.90
2018-05-07T04:14:38.090Z,99.90
2018-05-07T04:20:20.756Z,99.90
2018-05-07T04:23:00.310Z,99.90
2018-05-07T04:25:29.170Z,99.90
2018-05-07T04:27:57.930Z,99.90
2018-05-07T04:30:26.628Z,99.90
2018-05-07T04:32:55.118Z,99.90
2018-05-07T04:35:23.605Z,99.90
2018-05-07T04:37:52.303Z,99.90
2018-05-07T04:40:20.744Z,99.90
2018-05-07T04:42:49.477Z,99.90
2018-05-07T04:45:17.938Z,99.90
2018-05-07T04:47:46.033Z,99.90
2018-05-07T04:50:14.784Z,99.90
2018-05-07T04:52:43.645Z,99.90
2018-05-07T04:55:12.131Z,99.90
2018-05-07T04:57:41.072Z,99.90
2018-05-07T05:00:09.517Z,99.90
2018-05-07T05:02:38.280Z,99.90
2018-05-07T05:05:06.873Z,99.90
2018-05-07T05:07:36.260Z,99.90
2018-05-07T05:10:05.460Z,99.90
2018-05-07T05:12:33.913Z,99.90
2018-05-07T05:15:02.605Z,99.90
2018-05-07T05:17:31.201Z,99.90
2018-05-07T05:19:59.816Z,99.90
2018-05-07T05:22:28.016Z,99.90
2018-05-07T05:24:56.478Z,99.90
2018-05-07T05:27:24.914Z,99.90
2018-05-07T05:29:53.542Z,99.90
2018-05-07T05:32:22.702Z,99.90
2018-05-07T05:34:50.810Z,99.90
2018-05-07T05:37:19.274Z,99.90
2018-05-07T05:39:48.145Z,99.90
2018-05-07T05:42:16.848Z,99.90
2018-05-07T05:44:45.302Z,99.90
2018-05-07T05:47:13.779Z,99.90
2018-05-07T05:49:41.996Z,99.90
2018-05-07T05:52:11.524Z,99.90
2018-05-07T05:54:39.953Z,99.90
2018-05-07T05:57:08.649Z,99.90
2018-05-07T05:59:37.184Z,99.90
2018-05-07T06:02:05.886Z,99.90
2018-05-07T06:04:34.660Z,99.90
2018-05-07T06:07:03.360Z,99.60
2018-05-07T06:09:32.563Z,99.90
2018-05-07T06:12:01.762Z,99.90
2018-05-07T06:14:31.375Z,98.50
2018-05-07T06:16:59.980Z,98.50
2018-05-07T06:19:29.128Z,99.60
2018-05-07T06:21:58.360Z,98.20
2018-05-07T06:24:26.834Z,97.80
2018-05-07T06:26:55.288Z,98.40
2018-05-07T06:29:24.495Z,97.00
2018-05-07T06:31:53.213Z,97.30
2018-05-07T06:34:21.715Z,97.10
2018-05-07T06:36:50.299Z,97.70
2018-05-07T06:39:18.783Z,97.60
2018-05-07T06:41:47.261Z,97.00
2018-05-07T06:44:16.132Z,96.40
2018-05-07T06:46:45.624Z,95.60
2018-05-07T06:49:14.394Z,95.60
2018-05-07T06:51:42.873Z,95.60
2018-05-07T06:54:12.162Z,95.50
2018-05-07T06:56:40.883Z,95.90
2018-05-07T06:59:09.529Z,92.80
2018-05-07T07:01:37.995Z,93.60
2018-05-07T07:04:06.525Z,94.20
2018-05-07T07:06:35.257Z,92.50
2018-05-07T07:09:03.176Z,90.60
2018-05-07T07:11:31.889Z,90.90
2018-05-07T07:14:00.313Z,89.40
2018-05-07T07:16:29.093Z,83.50
2018-05-07T07:18:58.517Z,80.80
2018-05-07T07:21:27.185Z,80.80
2018-05-07T07:23:55.881Z,83.20
2018-05-07T07:26:24.584Z,81.90
2018-05-07T07:28:53.016Z,78.00
2018-05-07T07:31:22.332Z,79.20
2018-05-07T07:33:50.896Z,79.10
2018-05-07T07:36:19.472Z,79.40
2018-05-07T07:38:48.188Z,76.20
2018-05-07T07:41:16.886Z,72.80
2018-05-07T07:43:45.351Z,73.10
2018-05-07T07:46:14.067Z,70.90
2018-05-07T07:48:42.832Z,69.10
2018-05-07T07:51:11.534Z,69.30
2018-05-07T07:53:41.020Z,70.60
2018-05-07T07:56:10.422Z,68.40
2018-05-07T07:58:38.840Z,68.90
2018-05-07T08:01:07.288Z,67.40
2018-05-07T08:03:36.165Z,65.60
2018-05-07T08:06:05.392Z,67.60
2018-05-07T08:08:33.976Z,67.30
2018-05-07T08:11:03.484Z,65.90
2018-05-07T08:13:31.920Z,65.70
2018-05-07T08:16:00.616Z,63.60
2018-05-07T08:18:29.381Z,66.90
2018-05-07T08:20:58.215Z,65.10
2018-05-07T08:23:27.708Z,63.70
2018-05-07T08:25:56.404Z,63.10
2018-05-07T08:28:24.878Z,64.90
2018-05-07T08:30:53.344Z,59.50
2018-05-07T08:33:22.034Z,60.10
2018-05-07T08:35:50.468Z,57.30
2018-05-07T08:38:18.996Z,57.50
2018-05-07T08:40:47.481Z,57.10
2018-05-07T08:43:16.039Z,56.20
2018-05-07T08:45:44.646Z,55.80
2018-05-07T08:48:13.085Z,55.90
2018-05-07T08:50:41.811Z,57.00
2018-05-07T08:53:10.581Z,54.70
2018-05-07T08:55:39.192Z,55.70
2018-05-07T08:58:07.640Z,54.10
2018-05-07T09:00:36.119Z,53.40
2018-05-07T09:03:04.741Z,52.10
2018-05-07T09:05:33.177Z,52.40
2018-05-07T09:08:01.919Z,51.30
2018-05-07T09:10:30.556Z,52.20
2018-05-07T09:12:59.767Z,50.60
2018-05-07T09:15:28.826Z,50.50
2018-05-07T09:17:57.386Z,49.40
2018-05-07T09:20:25.992Z,51.30
2018-05-07T09:22:54.437Z,51.70
2018-05-07T09:25:22.889Z,50.30
2018-05-07T09:27:51.364Z,48.10
2018-05-07T09:30:19.804Z,47.90
2018-05-07T09:32:48.509Z,46.90
2018-05-07T09:35:17.718Z,47.90
2018-05-07T09:37:46.416Z,47.70
2018-05-07T09:40:15.704Z,46.40
2018-05-07T09:42:44.298Z,46.40
2018-05-07T09:45:12.810Z,46.60
2018-05-07T09:47:41.536Z,47.40
2018-05-07T09:50:10.230Z,45.90
2018-05-07T09:52:39.444Z,46.40
2018-05-07T09:55:07.869Z,46.30
2018-05-07T09:57:36.249Z,45.80
2018-05-07T10:00:04.012Z,42.90
2018-05-07T10:02:32.680Z,42.30
2018-05-07T10:05:02.028Z,42.90
2018-05-07T10:07:31.224Z,42.90
2018-05-07T10:10:00.663Z,42.00
2018-05-07T10:12:29.131Z,42.00
2018-05-07T10:14:57.564Z,42.40
2018-05-07T10:17:25.995Z,42.90
2018-05-07T10:19:54.582Z,39.90
2018-05-07T10:22:23.017Z,40.30
2018-05-07T10:24:51.485Z,41.80
2018-05-07T10:27:20.132Z,40.20
2018-05-07T10:29:48.646Z,40.20
2018-05-07T10:32:17.992Z,39.10
2018-05-07T10:34:46.439Z,39.10
2018-05-07T10:37:14.881Z,38.70
2018-05-07T10:39:43.307Z,37.70
2018-05-07T10:42:11.749Z,37.80
2018-05-07T10:44:40.178Z,38.30
2018-05-07T10:47:09.760Z,39.60
2018-05-07T10:49:38.188Z,39.30
2018-05-07T10:52:06.628Z,37.70
2018-05-07T10:54:35.317Z,36.60
2018-05-07T10:57:04.516Z,37.60
2018-05-07T10:59:33.196Z,37.60
2018-05-07T11:02:02.399Z,35.90
2018-05-07T11:04:31.618Z,36.00
2018-05-07T11:06:59.715Z,35.90
2018-05-07T11:09:28.169Z,35.10
2018-05-07T11:11:56.584Z,34.60
2018-05-07T11:14:25.527Z,34.80
2018-05-07T11:16:54.167Z,33.90
2018-05-07T11:19:22.664Z,36.90
2018-05-07T11:21:52.830Z,35.40
2018-05-07T11:24:21.264Z,35.40
2018-05-07T11:26:49.716Z,36.10
2018-05-07T11:29:18.139Z,33.50
2018-05-07T11:31:47.342Z,33.30
2018-05-07T11:34:16.051Z,33.40
2018-05-07T11:36:44.838Z,33.10
2018-05-07T11:39:13.361Z,31.30
2018-05-07T11:41:41.945Z,31.30
2018-05-07T11:44:10.675Z,31.20
2018-05-07T11:46:39.378Z,33.90
2018-05-07T11:49:08.858Z,36.60
2018-05-07T11:51:37.293Z,36.50
2018-05-07T11:54:05.538Z,34.30
2018-05-07T11:56:34.301Z,35.70
2018-05-07T11:59:02.777Z,32.90
2018-05-07T12:01:31.239Z,32.50
2018-05-07T12:04:00.449Z,35.20
2018-05-07T12:06:29.103Z,35.20
2018-05-07T12:08:57.568Z,33.40
2018-05-07T12:11:26.453Z,35.00
2018-05-07T12:13:55.139Z,31.70
2018-05-07T12:16:23.820Z,34.60
2018-05-07T12:18:52.266Z,34.00
2018-05-07T12:21:20.720Z,32.50
2018-05-07T12:23:50.445Z,35.20
2018-05-07T12:26:19.210Z,35.00
2018-05-07T12:28:48.753Z,33.30
2018-05-07T12:31:17.249Z,33.20
2018-05-07T12:33:45.848Z,30.10
2018-05-07T12:36:14.415Z,30.80
2018-05-07T12:38:42.849Z,32.10
2018-05-07T12:41:12.086Z,29.70
2018-05-07T12:43:40.295Z,29.70
2018-05-07T12:46:08.518Z,31.80
2018-05-07T12:48:37.228Z,29.00
2018-05-07T12:51:05.349Z,31.20
2018-05-07T12:53:34.045Z,30.20
2018-05-07T12:56:02.721Z,30.70
2018-05-07T12:58:32.005Z,29.10
2018-05-07T13:01:00.473Z,29.30
2018-05-07T13:03:28.953Z,29.60
2018-05-07T13:05:57.745Z,30.60
2018-05-07T13:08:27.074Z,31.20
2018-05-07T13:10:56.042Z,29.80
2018-05-07T13:13:25.240Z,31.00
2018-05-07T13:15:53.682Z,31.00
2018-05-07T13:18:23.151Z,30.30
2018-05-07T13:20:51.612Z,30.30
2018-05-07T13:23:19.904Z,29.70
2018-05-07T13:25:49.133Z,30.80
2018-05-07T13:28:17.613Z,30.90
2018-05-07T13:30:46.063Z,31.00
2018-05-07T13:33:16.048Z,30.00
2018-05-07T13:35:44.477Z,29.90
2018-05-07T13:38:13.961Z,29.70
2018-05-07T13:40:43.164Z,31.10
2018-05-07T13:43:11.623Z,31.00
2018-05-07T13:45:40.827Z,29.30
2018-05-07T13:48:09.566Z,29.30
2018-05-07T13:50:38.018Z,30.00
2018-05-07T13:53:06.702Z,30.40
2018-05-07T13:55:35.149Z,31.10
2018-05-07T13:58:04.358Z,29.50
2018-05-07T14:00:33.070Z,29.50
2018-05-07T14:03:01.815Z,29.00
2018-05-07T14:05:30.346Z,29.30
2018-05-07T14:07:59.687Z,31.30
2018-05-07T14:10:28.412Z,31.40
2018-05-07T14:12:57.265Z,30.20
2018-05-07T14:15:25.863Z,30.80
2018-05-07T14:17:54.581Z,31.30
2018-05-07T14:20:23.069Z,30.70
2018-05-07T14:22:51.823Z,31.00
2018-05-07T14:25:20.517Z,32.90
2018-05-07T14:27:48.956Z,32.00
2018-05-07T14:30:17.389Z,32.40
2018-05-07T14:32:45.853Z,31.00
2018-05-07T14:35:14.301Z,30.30
2018-05-07T14:37:42.733Z,30.80
2018-05-07T14:40:12.014Z,32.20
2018-05-07T14:42:40.232Z,32.10
2018-05-07T14:45:08.453Z,31.70
2018-05-07T14:47:37.021Z,33.20
2018-05-07T14:50:05.901Z,31.30
2018-05-07T14:52:34.632Z,32.80
2018-05-07T14:55:03.154Z,32.00
2018-05-07T14:57:31.964Z,31.80
2018-05-07T15:00:00.492Z,32.60
2018-05-07T15:02:30.492Z,32.20
2018-05-07T15:04:59.296Z,32.10
2018-05-07T15:07:28.364Z,31.60
2018-05-07T15:09:57.736Z,32.10
2018-05-07T15:12:26.446Z,32.40
2018-05-07T15:14:55.000Z,33.30
2018-05-07T15:17:23.721Z,32.40
2018-05-07T15:19:52.283Z,31.80
2018-05-07T15:22:20.743Z,31.40
2018-05-07T15:24:48.869Z,31.30
2018-05-07T15:27:17.544Z,31.00
2018-05-07T15:29:46.267Z,31.40
2018-05-07T15:32:14.723Z,31.90
2018-05-07T15:34:43.179Z,32.00
2018-05-07T15:37:11.638Z,32.00
2018-05-07T15:39:40.842Z,30.10
2018-05-07T15:42:09.703Z,30.00
2018-05-07T15:44:38.189Z,31.20
2018-05-07T15:47:06.801Z,31.10
2018-05-07T15:49:35.513Z,31.00
2018-05-07T15:52:03.974Z,32.20
2018-05-07T17:04:22.164Z,45.40
2018-05-07T17:06:50.626Z,45.00
2018-05-07T17:09:19.854Z,45.60
2018-05-07T17:11:49.659Z,45.60
2018-05-07T17:14:18.308Z,45.60
2018-05-07T17:16:47.519Z,46.60
2018-05-07T17:19:16.761Z,46.40
2018-05-07T17:21:45.207Z,46.40
2018-05-07T17:24:13.880Z,46.30
2018-05-07T17:26:42.743Z,46.70
2018-05-07T17:29:11.292Z,47.10
2018-05-07T17:31:39.816Z,46.50
2018-05-07T17:34:08.497Z,46.20
2018-05-07T17:36:36.941Z,47.00
2018-05-07T17:39:04.981Z,46.40
2018-05-07T17:41:33.625Z,46.80
2018-05-07T17:47:12.957Z,46.20
2018-05-07T17:49:41.673Z,47.00
2018-05-07T17:52:10.099Z,48.10
2018-05-07T17:54:38.659Z,48.10
2018-05-07T17:57:07.357Z,48.50
2018-05-07T17:59:35.809Z,48.40
2018-05-07T18:02:04.175Z,49.30
2018-05-07T18:04:32.632Z,49.80
2018-05-07T18:07:01.244Z,49.60
2018-05-07T18:09:30.467Z,49.20
2018-05-07T18:11:59.756Z,50.30
2018-05-07T18:14:29.149Z,50.40
2018-05-07T18:16:58.371Z,50.50
2018-05-07T18:19:26.798Z,50.50
2018-05-07T18:21:56.800Z,51.50
2018-05-07T18:24:25.507Z,51.50
2018-05-07T18:26:53.960Z,52.30
2018-05-07T18:29:23.413Z,52.80
2018-05-07T18:31:52.632Z,52.90
2018-05-07T18:34:21.146Z,52.90
2018-05-07T18:36:49.433Z,53.10
2018-05-07T18:39:17.900Z,53.40
2018-05-07T18:41:46.400Z,54.00
2018-05-07T18:44:14.900Z,53.70
2018-05-07T18:46:43.731Z,54.30
2018-05-07T18:49:13.424Z,54.70
2018-05-07T18:51:41.889Z,54.50
2018-05-07T18:54:10.802Z,55.10
2018-05-07T18:56:39.238Z,55.50
2018-05-07T18:59:07.719Z,56.30
2018-05-07T19:01:36.970Z,56.70
2018-05-07T19:04:06.093Z,57.50
2018-05-07T19:06:34.862Z,57.50
2018-05-07T19:09:03.231Z,57.70
2018-05-07T19:11:31.856Z,57.70
2018-05-07T19:14:00.333Z,57.40
2018-05-07T19:16:29.003Z,58.60
2018-05-07T19:18:57.893Z,57.70
2018-05-07T19:21:26.365Z,58.20
2018-05-07T19:23:54.572Z,58.10
2018-05-07T19:26:24.148Z,60.10
2018-05-07T19:28:52.773Z,60.10
2018-05-07T19:31:21.717Z,59.60
2018-05-07T19:33:50.429Z,59.30
2018-05-07T19:36:18.859Z,59.30
2018-05-07T19:38:47.300Z,61.40
2018-05-07T19:41:16.522Z,62.10
2018-05-07T19:43:46.033Z,62.30
2018-05-07T19:46:14.613Z,62.30
2018-05-07T19:48:43.036Z,62.50
2018-05-07T19:51:11.765Z,62.70
2018-05-07T19:53:40.259Z,63.70
2018-05-07T19:56:08.731Z,65.20
2018-05-07T19:58:37.429Z,65.00
2018-05-07T20:01:06.905Z,65.60
2018-05-07T20:03:35.804Z,65.60
2018-05-07T20:06:03.893Z,65.10
2018-05-07T20:08:32.337Z,65.70
2018-05-07T20:11:01.433Z,66.20
2018-05-07T20:13:30.633Z,66.00
2018-05-07T20:15:59.337Z,65.90
2018-05-07T20:18:28.101Z,66.70
2018-05-07T20:20:56.625Z,66.10
2018-05-07T20:23:26.092Z,66.70
2018-05-07T20:25:55.290Z,66.60
2018-05-07T20:28:24.003Z,66.50
2018-05-07T20:30:52.799Z,66.30
2018-05-07T20:33:22.263Z,66.90
2018-05-07T20:35:50.969Z,66.90
2018-05-07T20:38:19.688Z,66.90
2018-05-07T20:40:48.252Z,67.10
2018-05-07T20:43:16.681Z,67.20
2018-05-07T20:45:45.104Z,67.80
2018-05-07T20:48:13.702Z,68.10
2018-05-07T20:50:42.434Z,67.40
2018-05-07T20:53:11.160Z,67.30
2018-05-07T20:55:39.588Z,67.90
2018-05-07T20:58:07.931Z,68.40
2018-05-07T21:00:36.689Z,68.50
2018-05-07T21:03:05.285Z,68.80
2018-05-07T21:05:34.764Z,68.70
2018-05-07T21:08:03.988Z,68.70
2018-05-07T21:10:32.428Z,68.70
2018-05-07T21:13:01.406Z,69.70
2018-05-07T21:15:30.247Z,69.70
2018-05-07T21:17:58.969Z,69.30
2018-05-07T21:20:27.693Z,70.00
2018-05-07T21:22:56.122Z,71.00
2018-05-07T21:25:24.614Z,71.90
2018-05-07T21:27:53.050Z,71.90
2018-05-07T21:30:21.581Z,71.60
2018-05-07T21:32:50.029Z,71.00
2018-05-07T21:35:18.476Z,71.60
2018-05-07T21:37:47.076Z,72.90
2018-05-07T21:40:16.064Z,72.80
2018-05-07T21:42:44.521Z,72.40
2018-05-07T21:45:13.719Z,71.80
2018-05-07T21:47:42.933Z,72.70
2018-05-07T21:50:11.633Z,72.70
2018-05-07T21:52:41.084Z,72.30
2018-05-07T21:55:09.864Z,72.30
2018-05-07T21:57:38.452Z,72.70
2018-05-07T22:00:07.132Z,72.90
2018-05-07T22:02:35.649Z,72.80
2018-05-07T22:05:03.656Z,73.40
2018-05-07T22:07:32.448Z,73.60
2018-05-07T22:10:00.724Z,73.50
2018-05-07T22:12:29.438Z,74.20
2018-05-07T22:14:58.005Z,75.30
2018-05-07T22:17:26.865Z,76.20
2018-05-07T22:19:56.147Z,78.00
2018-05-07T22:22:24.792Z,77.30
2018-05-07T22:24:53.408Z,78.50
2018-05-07T22:27:22.888Z,78.80
2018-05-07T22:29:52.118Z,79.00
2018-05-07T22:32:20.542Z,78.50
2018-05-07T22:34:48.969Z,78.00
2018-05-07T22:37:17.637Z,77.80
2018-05-07T22:39:46.345Z,78.50
2018-05-07T22:42:15.138Z,77.90
2018-05-07T22:44:43.569Z,77.80
2018-05-07T22:47:12.285Z,78.20
2018-05-07T22:49:40.765Z,78.70
2018-05-07T22:52:09.795Z,78.70
2018-05-07T22:54:38.328Z,78.70
2018-05-07T22:57:07.532Z,78.00
2018-05-07T22:59:35.986Z,78.10
2018-05-07T23:02:05.921Z,78.50
2018-05-07T23:04:34.308Z,78.50
2018-05-07T23:07:02.741Z,78.60
2018-05-07T23:09:31.437Z,79.10
2018-05-07T23:12:00.160Z,79.10
2018-05-07T23:14:28.940Z,79.70
2018-05-07T23:16:57.152Z,80.20
2018-05-07T23:19:25.625Z,81.10
2018-05-07T23:21:54.156Z,80.70
2018-05-07T23:24:22.589Z,82.40
2018-05-07T23:26:51.070Z,83.00
2018-05-07T23:29:19.615Z,83.50
2018-05-07T23:31:48.391Z,84.20
2018-05-07T23:34:17.581Z,84.20
2018-05-07T23:36:46.033Z,84.10
2018-05-07T23:39:14.801Z,83.90
2018-05-07T23:41:43.232Z,85.80
2018-05-07T23:44:13.101Z,86.20
2018-05-07T23:46:41.833Z,86.10
2018-05-07T23:49:11.034Z,85.80
2018-05-07T23:51:40.365Z,85.00
2018-05-07T23:54:09.146Z,85.00
2018-05-07T23:56:37.806Z,84.60
2018-05-07T23:59:06.489Z,84.20
